createdAt,value
2018-11-23T00:00:33.531Z,101988.38
2018-11-23T00:03:01.094Z,101987.03
2018-11-23T00:05:28.228Z,101984.55
2018-11-23T00:07:56.552Z,101977.09
2018-11-23T00:10:24.809Z,101972.48
2018-11-23T00:12:51.900Z,101969.55
2018-11-23T00:15:38.499Z,101961.56
2018-11-23T00:18:05.603Z,101956.82
2018-11-23T00:20:32.686Z,101960.98
2018-11-23T00:22:59.791Z,101955.36
2018-11-23T00:25:27.277Z,101947.42
2018-11-23T00:27:54.933Z,101954.43
2018-11-23T00:30:41.481Z,101945.33
2018-11-23T00:33:08.582Z,101939.33
2018-11-23T00:35:35.667Z,101939.43
2018-11-23T00:38:02.781Z,101940.70
2018-11-23T00:40:30.986Z,101934.80
2018-11-23T00:42:58.359Z,101924.72
2018-11-23T00:45:25.480Z,101916.77
2018-11-23T00:47:53.297Z,101913.24
2018-11-23T00:50:21.439Z,101908.34
2018-11-23T00:52:49.030Z,101900.28
2018-11-23T00:55:17.301Z,101900.39
2018-11-23T00:57:44.401Z,101892.61
2018-11-23T01:00:40.323Z,101892.59
2018-11-23T01:03:07.436Z,101880.47
2018-11-23T01:05:34.526Z,101884.27
2018-11-23T01:08:01.670Z,101884.80
2018-11-23T01:10:29.613Z,101888.16
2018-11-23T01:12:57.260Z,101889.05
2018-11-23T01:15:24.347Z,101890.04
2018-11-23T01:17:51.426Z,101885.88
2018-11-23T01:20:19.856Z,101884.25
2018-11-23T01:22:47.411Z,101882.84
2018-11-23T01:25:15.600Z,101873.39
2018-11-23T01:27:43.466Z,101862.83
2018-11-23T01:30:39.205Z,101868.40
2018-11-23T01:33:06.281Z,101859.38
2018-11-23T01:35:33.365Z,101860.12
2018-11-23T01:38:00.444Z,101859.62
2018-11-23T01:40:28.908Z,101856.47
2018-11-23T01:42:56.362Z,101855.11
2018-11-23T01:45:23.462Z,101849.28
2018-11-23T01:47:50.538Z,101844.89
2018-11-23T01:50:37.124Z,101849.00
2018-11-23T01:53:04.238Z,101845.89
2018-11-23T01:55:31.335Z,101841.52
2018-11-23T01:57:58.461Z,101838.80
2018-11-23T02:00:26.728Z,101826.83
2018-11-23T02:02:54.413Z,101820.71
2018-11-23T02:05:21.553Z,101812.75
2018-11-23T02:07:48.649Z,101825.52
2018-11-23T02:10:16.578Z,101806.96
2018-11-23T02:12:43.693Z,101810.13
2018-11-23T02:15:12.317Z,101804.02
2018-11-23T02:17:39.414Z,101794.61
2018-11-23T02:20:25.986Z,101786.50
2018-11-23T02:22:53.117Z,101786.70
2018-11-23T02:25:20.211Z,101784.16
2018-11-23T02:27:47.296Z,101779.34
2018-11-23T02:30:16.475Z,101777.38
2018-11-23T02:32:43.906Z,101769.45
2018-11-23T02:35:11.460Z,101777.30
2018-11-23T02:37:38.543Z,101774.36
2018-11-23T02:40:06.484Z,101775.72
2018-11-23T02:42:33.600Z,101769.33
2018-11-23T02:45:00.684Z,101773.33
2018-11-23T02:47:27.764Z,101760.37
2018-11-23T02:49:54.840Z,101767.45
2018-11-23T02:52:21.925Z,101768.17
2018-11-23T02:54:49.003Z,101769.52
2018-11-23T02:57:16.072Z,101756.38
2018-11-23T02:59:43.172Z,101766.19
2018-11-23T03:02:10.244Z,101766.50
2018-11-23T03:04:37.325Z,101768.94
2018-11-23T03:07:04.457Z,101761.39
2018-11-23T03:09:31.599Z,101752.73
2018-11-23T03:11:58.704Z,101754.22
2018-11-23T03:14:25.817Z,101748.73
2018-11-23T03:16:52.909Z,101752.77
2018-11-23T03:19:20.013Z,101749.05
2018-11-23T03:21:47.094Z,101754.15
2018-11-23T03:24:14.466Z,101754.23
2018-11-23T03:26:41.533Z,101761.69
2018-11-23T03:29:08.610Z,101758.73
2018-11-23T03:31:35.706Z,101744.03
2018-11-23T03:34:02.798Z,101738.55
2018-11-23T03:36:29.897Z,101732.09
2018-11-23T03:38:56.982Z,101733.06
2018-11-23T03:41:24.084Z,101729.55
2018-11-23T03:43:51.167Z,101717.75
2018-11-23T03:46:18.281Z,101719.52
2018-11-23T03:48:45.361Z,101717.47
2018-11-23T03:51:12.519Z,101720.83
2018-11-23T03:53:39.589Z,101721.80
2018-11-23T03:56:06.690Z,101731.59
2018-11-23T03:58:33.780Z,101733.83
2018-11-23T04:01:00.879Z,101729.14
2018-11-23T04:03:27.967Z,101715.33
2018-11-23T04:05:55.044Z,101705.53
2018-11-23T04:08:22.142Z,101700.63
2018-11-23T04:10:49.210Z,101693.56
2018-11-23T04:13:16.302Z,101690.63
2018-11-23T04:15:43.374Z,101697.89
2018-11-23T04:18:10.468Z,101694.28
2018-11-23T04:20:37.549Z,101694.56
2018-11-23T04:23:04.708Z,101698.56
2018-11-23T04:25:31.788Z,101687.11
2018-11-23T04:27:58.864Z,101679.66
2018-11-23T04:30:25.946Z,101679.66
2018-11-23T04:32:53.049Z,101674.80
2018-11-23T04:35:20.138Z,101668.81
2018-11-23T04:37:47.637Z,101665.57
2018-11-23T04:40:15.613Z,101669.59
2018-11-23T04:42:42.929Z,101666.84
2018-11-23T04:47:58.060Z,101659.98
2018-11-23T04:50:25.142Z,101658.62
2018-11-23T04:52:52.226Z,101657.41
2018-11-23T04:55:19.355Z,101648.99
2018-11-23T04:57:47.305Z,101648.67
2018-11-23T05:00:14.959Z,101639.58
2018-11-23T05:02:42.539Z,101644.47
2018-11-23T05:05:10.209Z,101638.22
2018-11-23T05:07:37.297Z,101645.95
2018-11-23T05:10:06.284Z,101652.43
2018-11-23T05:12:33.378Z,101643.20
2018-11-23T05:15:00.684Z,101641.16
2018-11-23T05:17:27.762Z,101644.67
2018-11-23T05:19:54.877Z,101632.90
2018-11-23T05:22:21.984Z,101632.43
2018-11-23T05:24:49.125Z,101641.61
2018-11-23T05:27:16.199Z,101642.30
2018-11-23T05:29:43.293Z,101641.80
2018-11-23T05:32:10.387Z,101630.07
2018-11-23T05:34:37.498Z,101624.09
2018-11-23T05:37:04.684Z,101623.22
2018-11-23T05:39:31.788Z,101620.29
2018-11-23T05:41:58.946Z,101612.84
2018-11-23T05:44:26.026Z,101616.40
2018-11-23T05:46:53.152Z,101615.02
2018-11-23T05:49:20.270Z,101601.11
2018-11-23T05:51:47.404Z,101603.12
2018-11-23T05:54:14.487Z,101599.78
2018-11-23T05:56:41.570Z,101585.95
2018-11-23T05:59:08.661Z,101575.72
2018-11-23T06:01:35.775Z,101573.85
2018-11-23T06:04:02.890Z,101563.84
2018-11-23T06:06:29.975Z,101565.48
2018-11-23T06:08:57.062Z,101572.64
2018-11-23T06:11:24.188Z,101571.28
2018-11-23T06:13:51.276Z,101576.77
2018-11-23T06:16:18.351Z,101569.49
2018-11-23T06:18:45.428Z,101559.09
2018-11-23T06:21:12.528Z,101565.44
2018-11-23T06:23:39.678Z,101546.38
2018-11-23T06:26:26.760Z,101546.36
2018-11-23T06:28:53.898Z,101549.15
2018-11-23T06:31:21.004Z,101544.25
2018-11-23T06:33:48.756Z,101545.93
2018-11-23T06:36:16.187Z,101545.16
2018-11-23T06:38:43.387Z,101547.49
2018-11-23T06:41:10.825Z,101551.39
2018-11-23T06:43:38.013Z,101549.23
2018-11-23T06:46:07.099Z,101553.52
2018-11-23T06:48:34.207Z,101548.20
2018-11-23T06:51:01.318Z,101547.31
2018-11-23T06:53:28.444Z,101549.23
2018-11-23T06:55:55.925Z,101549.44
2018-11-23T06:58:23.138Z,101540.02
2018-11-23T07:00:50.276Z,101536.58
2018-11-23T07:03:17.385Z,101533.53
2018-11-23T07:05:44.532Z,101527.83
2018-11-23T07:08:12.023Z,101527.55
2018-11-23T07:10:39.117Z,101529.67
2018-11-23T07:13:06.589Z,101521.34
2018-11-23T07:15:33.735Z,101523.58
2018-11-23T07:18:00.846Z,101522.97
2018-11-23T07:20:27.999Z,101523.25
2018-11-23T07:22:55.257Z,101524.81
2018-11-23T07:25:22.374Z,101521.27
2018-11-23T07:27:49.466Z,101520.16
2018-11-23T07:30:36.789Z,101512.36
2018-11-23T07:33:04.212Z,101517.64
2018-11-23T07:35:31.350Z,101516.95
2018-11-23T07:37:58.438Z,101509.54
2018-11-23T07:41:04.473Z,101500.31
2018-11-23T07:43:31.586Z,101496.48
2018-11-23T07:45:58.697Z,101506.52
2018-11-23T07:48:25.798Z,101495.59
2018-11-23T07:50:52.923Z,101499.34
2018-11-23T07:53:20.009Z,101492.98
2018-11-23T07:55:47.143Z,101491.58
2018-11-23T07:58:14.251Z,101479.47
2018-11-23T08:00:41.333Z,101473.72
2018-11-23T08:03:08.430Z,101482.36
2018-11-23T08:05:35.553Z,101486.48
2018-11-23T08:08:02.651Z,101472.92
2018-11-23T08:10:29.238Z,101471.26
2018-11-23T08:12:56.313Z,101465.37
2018-11-23T08:15:24.669Z,101463.86
2018-11-23T08:17:51.787Z,101458.82
2018-11-23T08:20:20.388Z,101462.66
2018-11-23T08:22:47.641Z,101469.14
2018-11-23T08:25:15.913Z,101464.98
2018-11-23T08:27:43.793Z,101473.30
2018-11-23T08:30:33.918Z,101476.84
2018-11-23T08:33:01.007Z,101477.72
2018-11-23T08:35:28.106Z,101484.46
2018-11-23T08:37:55.197Z,101477.60
2018-11-23T08:40:26.198Z,101474.98
2018-11-23T08:42:53.921Z,101479.45
2018-11-23T08:45:25.095Z,101468.82
2018-11-23T08:47:52.172Z,101473.70
2018-11-23T08:50:40.610Z,101477.06
2018-11-23T08:53:08.025Z,101464.68
2018-11-23T08:55:35.139Z,101470.55
2018-11-23T08:58:02.257Z,101465.20
2018-11-23T09:00:29.344Z,101461.70
2018-11-23T09:02:57.984Z,101458.83
2018-11-23T09:05:25.080Z,101460.60
2018-11-23T09:07:53.544Z,101457.80
2018-11-23T09:10:22.299Z,101455.39
2018-11-23T09:12:51.114Z,101449.45
2018-11-23T09:15:18.356Z,101454.06
2018-11-23T09:17:45.850Z,101455.00
2018-11-23T09:20:20.102Z,101456.38
2018-11-23T09:22:47.331Z,101464.98
2018-11-23T09:25:16.040Z,101451.13
2018-11-23T09:27:43.284Z,101448.46
2018-11-23T09:30:29.950Z,101448.84
2018-11-23T09:32:57.673Z,101443.59
2018-11-23T09:35:25.401Z,101434.91
2018-11-23T09:37:52.772Z,101438.86
2018-11-23T09:40:39.419Z,101438.69
2018-11-23T09:43:06.663Z,101436.03
2018-11-23T09:45:34.279Z,101441.69
2018-11-23T09:48:02.761Z,101444.08
2018-11-23T09:50:30.024Z,101440.58
2018-11-23T09:53:01.321Z,101437.19
2018-11-23T09:55:29.458Z,101435.31
2018-11-23T09:57:56.713Z,101426.66
2018-11-23T10:00:43.371Z,101419.69
2018-11-23T10:03:10.627Z,101421.07
2018-11-23T10:05:37.883Z,101417.88
2018-11-23T10:08:06.209Z,101408.39
2018-11-23T10:10:33.494Z,101410.68
2018-11-23T10:13:00.734Z,101405.90
2018-11-23T10:15:29.192Z,101403.59
2018-11-23T10:17:56.427Z,101387.72
2018-11-23T10:20:25.038Z,101387.78
2018-11-23T10:22:52.320Z,101379.89
2018-11-23T10:25:21.012Z,101373.20
2018-11-23T10:27:48.380Z,101373.75
2018-11-23T10:30:35.751Z,101368.20
2018-11-23T10:33:04.462Z,101361.23
2018-11-23T10:35:31.785Z,101367.38
2018-11-23T10:38:00.416Z,101360.73
2018-11-23T10:40:29.422Z,101351.80
2018-11-23T10:42:56.666Z,101356.02
2018-11-23T10:45:28.239Z,101356.55
2018-11-23T10:47:56.278Z,101346.77
2018-11-23T10:50:25.110Z,101344.54
2018-11-23T10:52:52.354Z,101339.11
2018-11-23T10:55:21.036Z,101336.66
2018-11-23T10:57:48.453Z,101328.57
2018-11-23T11:00:36.069Z,101321.37
2018-11-23T11:03:22.739Z,101321.84
2018-11-23T11:06:09.445Z,101315.94
2018-11-23T11:08:37.069Z,101314.63
2018-11-23T11:11:04.602Z,101316.67
2018-11-23T11:13:31.934Z,101320.30
2018-11-23T11:15:59.174Z,101314.14
2018-11-23T11:18:26.414Z,101308.63
2018-11-23T11:20:53.718Z,101301.41
2018-11-23T11:23:20.953Z,101302.08
2018-11-23T11:25:48.191Z,101310.30
2018-11-23T11:28:34.935Z,101306.07
2018-11-23T11:31:02.182Z,101308.37
2018-11-23T11:33:29.406Z,101300.69
2018-11-23T11:35:56.640Z,101301.27
2018-11-23T11:38:23.957Z,101293.85
2018-11-23T11:40:51.157Z,101295.99
2018-11-23T11:43:18.399Z,101292.58
2018-11-23T11:45:45.611Z,101295.58
2018-11-23T11:48:12.864Z,101291.68
2018-11-23T11:50:40.118Z,101294.69
2018-11-23T11:53:07.372Z,101298.09
2018-11-23T11:55:34.623Z,101303.27
2018-11-23T11:58:01.888Z,101295.50
2018-11-23T12:00:29.108Z,101298.02
2018-11-23T12:02:56.385Z,101286.22
2018-11-23T12:05:23.665Z,101293.61
2018-11-23T12:07:50.918Z,101291.37
2018-11-23T12:10:19.586Z,101290.50
2018-11-23T12:12:46.834Z,101291.92
2018-11-23T12:15:14.732Z,101291.97
2018-11-23T12:17:42.212Z,101293.33
2018-11-23T12:20:12.261Z,101303.67
2018-11-23T12:22:39.764Z,101300.73
2018-11-23T12:25:07.018Z,101301.16
2018-11-23T12:27:34.235Z,101300.73
2018-11-23T12:30:01.551Z,101301.92
2018-11-23T12:32:28.816Z,101297.34
2018-11-23T12:34:56.048Z,101299.11
2018-11-23T12:37:23.291Z,101300.63
2018-11-23T12:39:50.572Z,101301.61
2018-11-23T12:42:37.256Z,101296.70
2018-11-23T12:45:06.320Z,101309.57
2018-11-23T12:47:33.538Z,101305.44
2018-11-23T12:50:00.770Z,101300.95
2018-11-23T12:52:28.078Z,101293.06
2018-11-23T12:54:55.313Z,101294.61
2018-11-23T12:57:22.582Z,101302.99
2018-11-23T12:59:49.799Z,101301.52
2018-11-23T13:02:17.403Z,101297.56
2018-11-23T13:04:44.620Z,101300.41
2018-11-23T13:07:11.860Z,101300.77
2018-11-23T13:09:39.081Z,101299.07
2018-11-23T13:12:06.322Z,101294.70
2018-11-23T13:14:33.542Z,101289.88
2018-11-23T13:17:00.801Z,101288.59
2018-11-23T13:19:28.098Z,101292.93
2018-11-23T13:21:55.368Z,101287.64
2018-11-23T13:24:22.627Z,101283.62
2018-11-23T13:26:49.862Z,101283.55
2018-11-23T13:29:17.090Z,101272.19
2018-11-23T13:31:44.334Z,101271.64
2018-11-23T13:34:11.547Z,101261.33
2018-11-23T13:36:38.806Z,101264.66
2018-11-23T13:39:06.718Z,101249.45
2018-11-23T13:41:34.009Z,101260.43
2018-11-23T13:44:01.297Z,101265.86
2018-11-23T13:46:28.539Z,101261.05
2018-11-23T13:48:55.772Z,101269.05
2018-11-23T13:51:22.984Z,101262.01
2018-11-23T13:53:50.206Z,101258.39
2018-11-23T13:56:17.561Z,101255.20
2018-11-23T13:58:44.768Z,101258.20
2018-11-23T14:01:11.976Z,101256.47
2018-11-23T14:03:39.200Z,101239.23
2018-11-23T14:06:06.452Z,101240.44
2018-11-23T14:08:33.695Z,101254.66
2018-11-23T14:11:00.914Z,101256.00
2018-11-23T14:13:28.145Z,101261.91
2018-11-23T14:15:55.352Z,101244.64
2018-11-23T14:18:22.560Z,101254.00
2018-11-23T14:20:49.783Z,101252.22
2018-11-23T14:23:17.019Z,101270.23
2018-11-23T14:25:44.285Z,101260.64
2018-11-23T14:28:11.536Z,101255.08
2018-11-23T14:30:38.760Z,101242.89
2018-11-23T14:33:06.031Z,101259.97
2018-11-23T14:35:34.179Z,101268.44
2018-11-23T14:38:01.822Z,101273.95
2018-11-23T14:40:29.063Z,101270.41
2018-11-23T14:42:56.762Z,101256.46
2018-11-23T14:45:44.030Z,101267.89
2018-11-23T14:48:11.266Z,101271.33
2018-11-23T14:50:57.930Z,101254.92
2018-11-23T14:53:25.164Z,101254.36
2018-11-23T14:55:52.415Z,101262.07
2018-11-23T14:58:19.722Z,101270.59
2018-11-23T15:00:46.952Z,101266.98
2018-11-23T15:03:14.195Z,101256.59
2018-11-23T15:05:41.447Z,101256.12
2018-11-23T15:08:08.655Z,101258.17
2018-11-23T15:10:36.286Z,101263.11
2018-11-23T15:13:04.484Z,101281.72
2018-11-23T15:15:36.629Z,101286.88
2018-11-23T15:18:04.030Z,101278.23
2018-11-23T15:20:50.720Z,101263.97
2018-11-23T15:23:19.331Z,101257.87
2018-11-23T15:25:46.573Z,101262.20
2018-11-23T15:28:14.328Z,101255.35
2018-11-23T15:30:42.498Z,101232.56
2018-11-23T15:33:11.222Z,101236.75
2018-11-23T15:35:39.022Z,101225.89
2018-11-23T15:38:10.210Z,101231.36
2018-11-23T15:40:35.192Z,101239.65
2018-11-23T15:43:03.872Z,101242.94
2018-11-23T15:45:31.984Z,101253.59
2018-11-23T15:47:59.751Z,101236.96
2018-11-23T15:50:28.836Z,101210.58
2018-11-23T15:52:56.087Z,101214.73
2018-11-23T15:55:25.409Z,101212.25
2018-11-23T15:57:53.899Z,101210.00
2018-11-23T16:00:26.810Z,101218.88
2018-11-23T16:02:54.221Z,101225.37
2018-11-23T16:05:21.661Z,101209.28
2018-11-23T16:07:49.373Z,101199.50
2018-11-23T16:10:22.045Z,101211.55
2018-11-23T16:12:50.538Z,101210.00
2018-11-23T16:15:18.618Z,101209.10
2018-11-23T16:17:46.108Z,101215.72
2018-11-23T16:20:32.931Z,101215.12
2018-11-23T16:23:19.627Z,101212.72
2018-11-23T16:25:47.445Z,101207.59
2018-11-23T16:28:14.708Z,101213.23
2018-11-23T16:30:43.487Z,101204.72
2018-11-23T16:33:12.268Z,101212.29
2018-11-23T16:35:40.152Z,101211.72
2018-11-23T16:38:09.548Z,101201.89
2018-11-23T16:40:38.766Z,101196.42
2018-11-23T16:43:07.446Z,101207.28
2018-11-23T16:45:35.417Z,101206.69
2018-11-23T16:48:04.015Z,101206.34
2018-11-23T16:50:31.425Z,101211.00
2018-11-23T16:52:58.929Z,101209.24
2018-11-23T16:55:26.514Z,101214.13
2018-11-23T16:58:13.230Z,101203.79
2018-11-23T17:00:41.661Z,101213.30
2018-11-23T17:03:12.939Z,101215.05
2018-11-23T17:05:41.614Z,101218.98
2018-11-23T17:08:09.100Z,101207.64
2018-11-23T17:10:36.295Z,101217.10
2018-11-23T17:13:03.496Z,101215.00
2018-11-23T17:15:30.724Z,101208.56
2018-11-23T17:17:57.847Z,101215.89
2018-11-23T17:20:26.371Z,101217.91
2018-11-23T17:22:54.719Z,101220.13
2018-11-23T17:25:22.718Z,101220.05
2018-11-23T17:27:50.436Z,101222.53
2018-11-23T17:30:37.023Z,101221.99
2018-11-23T17:33:04.382Z,101234.05
2018-11-23T17:35:31.531Z,101225.80
2018-11-23T17:37:58.636Z,101231.03
2018-11-23T17:40:27.164Z,101226.99
2018-11-23T17:42:54.606Z,101225.55
2018-11-23T17:45:23.362Z,101216.72
2018-11-23T17:47:51.104Z,101213.97
2018-11-23T17:50:19.671Z,101219.45
2018-11-23T17:52:47.329Z,101216.81
2018-11-23T17:55:14.619Z,101225.34
2018-11-23T17:57:42.342Z,101225.30
2018-11-23T18:00:30.179Z,101222.20
2018-11-23T18:02:58.250Z,101223.45
2018-11-23T18:05:26.106Z,101228.50
2018-11-23T18:07:53.283Z,101230.95
2018-11-23T18:10:39.868Z,101225.26
2018-11-23T18:13:07.015Z,101230.80
2018-11-23T18:15:34.807Z,101233.34
2018-11-23T18:18:02.882Z,101225.06
2018-11-23T18:20:30.722Z,101213.30
2018-11-23T18:22:58.721Z,101207.20
2018-11-23T18:25:27.333Z,101208.04
2018-11-23T18:28:14.075Z,101205.40
2018-11-23T18:30:41.255Z,101204.10
2018-11-23T18:33:08.477Z,101204.10
2018-11-23T18:35:35.865Z,101209.11
2018-11-23T18:38:03.003Z,101216.09
2018-11-23T18:40:36.948Z,101207.95
2018-11-23T18:42:57.280Z,101205.22
2018-11-23T18:45:24.422Z,101198.23
2018-11-23T18:47:51.541Z,101194.86
2018-11-23T18:50:18.660Z,101190.97
2018-11-23T18:52:45.846Z,101202.34
2018-11-23T18:55:17.847Z,101209.34
2018-11-23T18:57:40.716Z,101211.09
2018-11-23T19:00:27.356Z,101195.83
2018-11-23T19:02:54.536Z,101190.52
2018-11-23T19:05:41.830Z,101173.53
2018-11-23T19:08:08.993Z,101169.13
2018-11-23T19:10:36.142Z,101171.34
2018-11-23T19:13:03.289Z,101177.09
2018-11-23T19:15:30.405Z,101161.68
2018-11-23T19:17:57.594Z,101163.77
2018-11-23T19:20:25.027Z,101161.59
2018-11-23T19:22:53.303Z,101151.31
2018-11-23T19:25:20.411Z,101155.06
2018-11-23T19:27:47.543Z,101146.38
2018-11-23T19:30:37.653Z,101148.41
2018-11-23T19:33:04.897Z,101154.41
2018-11-23T19:35:32.033Z,101146.14
2018-11-23T19:37:59.144Z,101153.40
2018-11-23T19:40:26.277Z,101149.92
2018-11-23T19:42:53.462Z,101148.69
2018-11-23T19:45:20.730Z,101153.13
2018-11-23T19:47:47.889Z,101148.69
2018-11-23T19:50:15.881Z,101155.16
2018-11-23T19:52:43.043Z,101138.23
2018-11-23T19:55:11.111Z,101146.83
2018-11-23T19:57:38.282Z,101138.50
2018-11-23T20:00:27.995Z,101119.30
2018-11-23T20:02:55.106Z,101110.14
2018-11-23T20:05:22.472Z,101118.31
2018-11-23T20:07:50.996Z,101117.34
2018-11-23T20:12:54.097Z,101137.36
2018-11-23T20:15:21.209Z,101140.06
2018-11-23T20:17:48.364Z,101134.88
2018-11-23T20:20:15.989Z,101133.95
2018-11-23T20:22:43.429Z,101131.32
2018-11-23T20:25:14.261Z,101132.50
2018-11-23T20:27:41.524Z,101135.83
2018-11-23T20:33:07.036Z,101126.91
2018-11-23T20:35:34.223Z,101132.30
2018-11-23T20:38:01.379Z,101140.34
2018-11-23T20:40:28.492Z,101122.56
2018-11-23T20:42:55.623Z,101124.20
2018-11-23T20:45:22.756Z,101118.05
2018-11-23T20:47:49.898Z,101117.45
2018-11-23T20:50:17.484Z,101116.91
2018-11-23T20:52:44.625Z,101117.74
2018-11-23T20:55:21.368Z,101111.63
2018-11-23T20:57:48.522Z,101115.81
2018-11-23T21:00:16.615Z,101112.64
2018-11-23T21:02:44.361Z,101114.22
2018-11-23T21:05:12.630Z,101116.73
2018-11-23T21:07:39.883Z,101116.98
2018-11-23T21:10:26.445Z,101125.41
2018-11-23T21:12:54.093Z,101130.52
2018-11-23T21:15:30.168Z,101119.25
2018-11-23T21:17:58.986Z,101118.66
2018-11-23T21:20:26.773Z,101121.60
2018-11-23T21:22:53.896Z,101115.41
2018-11-23T21:25:21.032Z,101117.41
2018-11-23T21:27:48.176Z,101110.81
2018-11-23T21:30:16.395Z,101102.10
2018-11-23T21:32:43.515Z,101103.66
2018-11-23T21:35:11.041Z,101107.87
2018-11-23T21:37:38.152Z,101111.63
2018-11-23T21:40:28.230Z,101117.61
2018-11-23T21:42:55.358Z,101128.72
2018-11-23T21:45:22.535Z,101132.08
2018-11-23T21:47:49.674Z,101132.05
2018-11-23T21:50:36.310Z,101125.53
2018-11-23T21:53:03.449Z,101112.14
2018-11-23T21:55:30.610Z,101115.47
2018-11-23T21:57:57.736Z,101112.30
2018-11-23T22:00:24.897Z,101113.10
2018-11-23T22:02:52.044Z,101120.04
2018-11-23T22:05:19.164Z,101110.52
2018-11-23T22:07:46.307Z,101108.69
2018-11-23T22:10:17.281Z,101104.31
2018-11-23T22:12:44.434Z,101097.79
2018-11-23T22:15:34.578Z,101098.55
2018-11-23T22:18:01.710Z,101097.25
2018-11-23T22:20:28.846Z,101086.88
2018-11-23T22:22:55.974Z,101087.28
2018-11-23T22:25:23.377Z,101081.64
2018-11-23T22:27:50.483Z,101085.97
2018-11-23T22:30:37.057Z,101092.97
2018-11-23T22:33:04.202Z,100980.91
2018-11-23T22:35:31.349Z,101108.14
2018-11-23T22:37:58.454Z,101095.85
2018-11-23T22:40:25.560Z,101098.51
2018-11-23T22:43:12.886Z,101096.21
2018-11-23T22:45:40.032Z,101095.78
2018-11-23T22:48:07.318Z,101108.97
2018-11-23T22:50:34.447Z,101105.90
2018-11-23T22:53:01.604Z,101103.19
2018-11-23T22:55:28.745Z,101098.30
2018-11-23T22:57:55.859Z,101085.64
2018-11-23T23:00:45.889Z,101096.39
2018-11-23T23:03:13.309Z,101104.64
2018-11-23T23:05:42.640Z,101108.53
2018-11-23T23:08:07.727Z,101089.45
2018-11-23T23:10:34.863Z,101079.38
2018-11-23T23:13:02.019Z,101084.73
2018-11-23T23:15:29.127Z,101074.34
2018-11-23T23:17:56.252Z,101076.38
2018-11-23T23:20:23.452Z,101073.25
2018-11-23T23:22:50.584Z,101075.59
2018-11-23T23:25:17.751Z,101064.66
2018-11-23T23:27:44.867Z,101076.97
2018-11-23T23:30:31.479Z,101068.20
2018-11-23T23:32:58.606Z,101067.33
2018-11-23T23:35:25.758Z,101069.82
2018-11-23T23:37:52.898Z,101067.98
2018-11-23T23:40:20.034Z,101070.37
2018-11-23T23:42:47.458Z,101053.89
2018-11-23T23:45:34.574Z,101067.59
2018-11-23T23:48:01.689Z,101059.69
2018-11-23T23:50:29.212Z,101056.12
2018-11-23T23:52:56.321Z,101070.30
2018-11-23T23:55:23.437Z,101071.58
2018-11-23T23:57:50.559Z,101068.45
